ADDS METAR Data INFO
IDs: Format: Raw Decoded Include TAF

Data at: 0234 UTC 22 Jul 2017

METAR for:KTVY (Tooele Valley Arpt, UT, US)
Text:KTVY 220215Z AUTO 36003KT 10SM CLR 29/12 A3000 RMK AO2
Temperature: 29.0°C ( 84°F)
Dewpoint: 12.0°C ( 54°F) [RH = 35%]
Pressure (altimeter):30.00 inches Hg (1016.0 mb)
Winds:from the N (360 degrees) at 3 MPH (3 knots; 1.5 m/s)
Visibility:10 or more sm (16+ km)
Ceiling:at least 12,000 feet AGL
Clouds:sky clear below 12,000 feet AGL
QC Flag:automated observation with no human augmentation
Text:KTVY 220155Z AUTO 36005KT 10SM CLR 30/11 A3000 RMK AO2
Temperature: 30.0°C ( 86°F)
Dewpoint: 11.0°C ( 52°F) [RH = 31%]
Pressure (altimeter):30.00 inches Hg (1016.0 mb)
Winds:from the N (360 degrees) at 6 MPH (5 knots; 2.6 m/s)
Visibility:10 or more sm (16+ km)
Ceiling:at least 12,000 feet AGL
Clouds:sky clear below 12,000 feet AGL
QC Flag:automated observation with no human augmentation
Text:KTVY 220135Z AUTO 36006KT 10SM CLR 31/11 A3000 RMK AO2
Temperature: 31.0°C ( 88°F)
Dewpoint: 11.0°C ( 52°F) [RH = 29%]
Pressure (altimeter):30.00 inches Hg (1016.0 mb)
Winds:from the N (360 degrees) at 7 MPH (6 knots; 3.1 m/s)
Visibility:10 or more sm (16+ km)
Ceiling:at least 12,000 feet AGL
Clouds:sky clear below 12,000 feet AGL
QC Flag:automated observation with no human augmentation
Text:KTVY 220115Z AUTO 36008KT 10SM CLR 31/11 A3000 RMK AO2
Temperature: 31.0°C ( 88°F)
Dewpoint: 11.0°C ( 52°F) [RH = 29%]
Pressure (altimeter):30.00 inches Hg (1016.0 mb)
Winds:from the N (360 degrees) at 9 MPH (8 knots; 4.1 m/s)
Visibility:10 or more sm (16+ km)
Ceiling:at least 12,000 feet AGL
Clouds:sky clear below 12,000 feet AGL
QC Flag:automated observation with no human augmentation
Text:KTVY 220055Z AUTO 36010KT 10SM CLR 32/10 A3000 RMK AO2 LTG DSNT SE
Temperature: 32.0°C ( 90°F)
Dewpoint: 10.0°C ( 50°F) [RH = 26%]
Pressure (altimeter):30.00 inches Hg (1016.0 mb)
Winds:from the N (360 degrees) at 12 MPH (10 knots; 5.1 m/s)
Visibility:10 or more sm (16+ km)
Ceiling:at least 12,000 feet AGL
Clouds:sky clear below 12,000 feet AGL
QC Flag:automated observation with no human augmentation
Text:KTVY 220035Z AUTO 36011KT 10SM CLR 32/10 A3000 RMK AO2
Temperature: 32.0°C ( 90°F)
Dewpoint: 10.0°C ( 50°F) [RH = 26%]
Pressure (altimeter):30.00 inches Hg (1016.0 mb)
Winds:from the N (360 degrees) at 13 MPH (11 knots; 5.7 m/s)
Visibility:10 or more sm (16+ km)
Ceiling:at least 12,000 feet AGL
Clouds:sky clear below 12,000 feet AGL
QC Flag:automated observation with no human augmentation
Text:KTVY 220015Z AUTO 36010KT 10SM CLR 32/11 A3000 RMK AO2
Temperature: 32.0°C ( 90°F)
Dewpoint: 11.0°C ( 52°F) [RH = 28%]
Pressure (altimeter):30.00 inches Hg (1016.0 mb)
Winds:from the N (360 degrees) at 12 MPH (10 knots; 5.1 m/s)
Visibility:10 or more sm (16+ km)
Ceiling:at least 12,000 feet AGL
Clouds:sky clear below 12,000 feet AGL
QC Flag:automated observation with no human augmentation
Text:KTVY 212355Z AUTO 36011KT 10SM CLR 33/11 A3001 RMK AO2
Temperature: 33.0°C ( 91°F)
Dewpoint: 11.0°C ( 52°F) [RH = 26%]
Pressure (altimeter):30.01 inches Hg (1016.3 mb)
Winds:from the N (360 degrees) at 13 MPH (11 knots; 5.7 m/s)
Visibility:10 or more sm (16+ km)
Ceiling:at least 12,000 feet AGL
Clouds:sky clear below 12,000 feet AGL
QC Flag:automated observation with no human augmentation
Text:KTVY 212335Z AUTO 01011KT 10SM CLR 33/10 A3001 RMK AO2
Temperature: 33.0°C ( 91°F)
Dewpoint: 10.0°C ( 50°F) [RH = 24%]
Pressure (altimeter):30.01 inches Hg (1016.3 mb)
Winds:from the N (10 degrees) at 13 MPH (11 knots; 5.7 m/s)
Visibility:10 or more sm (16+ km)
Ceiling:at least 12,000 feet AGL
Clouds:sky clear below 12,000 feet AGL
QC Flag:automated observation with no human augmentation
Text:KTVY 212315Z AUTO 01010KT 10SM CLR 33/11 A3001 RMK AO2
Temperature: 33.0°C ( 91°F)
Dewpoint: 11.0°C ( 52°F) [RH = 26%]
Pressure (altimeter):30.01 inches Hg (1016.3 mb)
Winds:from the N (10 degrees) at 12 MPH (10 knots; 5.1 m/s)
Visibility:10 or more sm (16+ km)
Ceiling:at least 12,000 feet AGL
Clouds:sky clear below 12,000 feet AGL
QC Flag:automated observation with no human augmentation
Text:KTVY 212255Z AUTO 36010KT 10SM CLR 33/12 A3002 RMK AO2
Temperature: 33.0°C ( 91°F)
Dewpoint: 12.0°C ( 54°F) [RH = 28%]
Pressure (altimeter):30.02 inches Hg (1016.7 mb)
Winds:from the N (360 degrees) at 12 MPH (10 knots; 5.1 m/s)
Visibility:10 or more sm (16+ km)
Ceiling:at least 12,000 feet AGL
Clouds:sky clear below 12,000 feet AGL
QC Flag:automated observation with no human augmentation
Text:KTVY 212235Z AUTO 36010KT 10SM CLR 33/12 A3002 RMK AO2
Temperature: 33.0°C ( 91°F)
Dewpoint: 12.0°C ( 54°F) [RH = 28%]
Pressure (altimeter):30.02 inches Hg (1016.7 mb)
Winds:from the N (360 degrees) at 12 MPH (10 knots; 5.1 m/s)
Visibility:10 or more sm (16+ km)
Ceiling:at least 12,000 feet AGL
Clouds:sky clear below 12,000 feet AGL
QC Flag:automated observation with no human augmentation
Text:KTVY 212215Z AUTO 36010KT 10SM CLR 33/12 A3003 RMK AO2
Temperature: 33.0°C ( 91°F)
Dewpoint: 12.0°C ( 54°F) [RH = 28%]
Pressure (altimeter):30.03 inches Hg (1017.0 mb)
Winds:from the N (360 degrees) at 12 MPH (10 knots; 5.1 m/s)
Visibility:10 or more sm (16+ km)
Ceiling:at least 12,000 feet AGL
Clouds:sky clear below 12,000 feet AGL
QC Flag:automated observation with no human augmentation
Text:KTVY 212155Z AUTO 02009KT 10SM CLR 32/12 A3003 RMK AO2
Temperature: 32.0°C ( 90°F)
Dewpoint: 12.0°C ( 54°F) [RH = 30%]
Pressure (altimeter):30.03 inches Hg (1017.0 mb)
Winds:from the NNE (20 degrees) at 10 MPH (9 knots; 4.6 m/s)
Visibility:10 or more sm (16+ km)
Ceiling:at least 12,000 feet AGL
Clouds:sky clear below 12,000 feet AGL
QC Flag:automated observation with no human augmentation
Text:KTVY 212135Z AUTO 01010G14KT 10SM CLR 32/12 A3004 RMK AO2
Temperature: 32.0°C ( 90°F)
Dewpoint: 12.0°C ( 54°F) [RH = 30%]
Pressure (altimeter):30.04 inches Hg (1017.4 mb)
Winds:from the N (10 degrees) at 12 MPH (10 knots; 5.1 m/s) gusting to 16 MPH (14 knots; 7.2 m/s)
Visibility:10 or more sm (16+ km)
Ceiling:at least 12,000 feet AGL
Clouds:sky clear below 12,000 feet AGL
QC Flag:automated observation with no human augmentation